sensor_id;sensor_type;location;lat;lon;timestamp;P1;durP1;ratioP1;P2;durP2;ratioP2
146;SDS011;45999;48.808;9.182;2023-08-06T00:00:30;8.40;;;7.70;;
146;SDS011;45999;48.808;9.182;2023-08-06T00:02:56;8.80;;;7.87;;
146;SDS011;45999;48.808;9.182;2023-08-06T00:05:22;8.30;;;7.47;;
146;SDS011;45999;48.808;9.182;2023-08-06T00:07:49;9.70;;;8.03;;
146;SDS011;45999;48.808;9.182;2023-08-06T00:10:16;9.43;;;7.77;;
146;SDS011;45999;48.808;9.182;2023-08-06T00:12:43;9.00;;;8.20;;
146;SDS011;45999;48.808;9.182;2023-08-06T00:15:10;9.03;;;7.97;;
146;SDS011;45999;48.808;9.182;2023-08-06T00:17:36;8.47;;;7.67;;
146;SDS011;45999;48.808;9.182;2023-08-06T00:20:03;9.13;;;7.00;;
146;SDS011;45999;48.808;9.182;2023-08-06T00:22:34;7.13;;;6.50;;
146;SDS011;45999;48.808;9.182;2023-08-06T00:25:02;6.90;;;6.20;;
146;SDS011;45999;48.808;9.182;2023-08-06T00:27:29;7.30;;;6.30;;
146;SDS011;45999;48.808;9.182;2023-08-06T00:29:56;6.40;;;5.80;;
146;SDS011;45999;48.808;9.182;2023-08-06T00:32:22;5.97;;;5.47;;
146;SDS011;45999;48.808;9.182;2023-08-06T00:34:48;4.53;;;4.13;;
146;SDS011;45999;48.808;9.182;2023-08-06T00:37:15;5.70;;;3.70;;
146;SDS011;45999;48.808;9.182;2023-08-06T00:39:43;4.20;;;3.90;;
146;SDS011;45999;48.808;9.182;2023-08-06T00:42:10;3.60;;;3.30;;
146;SDS011;45999;48.808;9.182;2023-08-06T00:44:38;4.73;;;3.10;;
146;SDS011;45999;48.808;9.182;2023-08-06T00:47:06;5.40;;;2.97;;
146;SDS011;45999;48.808;9.182;2023-08-06T00:49:34;3.20;;;3.00;;
146;SDS011;45999;48.808;9.182;2023-08-06T00:52:02;3.03;;;2.77;;
146;SDS011;45999;48.808;9.182;2023-08-06T00:54:30;5.23;;;2.97;;
146;SDS011;45999;48.808;9.182;2023-08-06T00:56:57;3.83;;;3.00;;
146;SDS011;45999;48.808;9.182;2023-08-06T00:59:25;3.90;;;3.00;;
146;SDS011;45999;48.808;9.182;2023-08-06T01:01:52;3.87;;;3.00;;
146;SDS011;45999;48.808;9.182;2023-08-06T01:04:18;3.90;;;3.50;;
146;SDS011;45999;48.808;9.182;2023-08-06T01:06:46;2.83;;;2.63;;
146;SDS011;45999;48.808;9.182;2023-08-06T01:17:26;4.40;;;3.40;;
146;SDS011;45999;48.808;9.182;2023-08-06T01:19:53;3.17;;;2.97;;
146;SDS011;45999;48.808;9.182;2023-08-06T01:22:20;4.20;;;3.83;;
146;SDS011;45999;48.808;9.182;2023-08-06T01:24:47;3.90;;;3.50;;
146;SDS011;45999;48.808;9.182;2023-08-06T01:27:27;4.60;;;3.63;;
146;SDS011;45999;48.808;9.182;2023-08-06T01:30:00;4.63;;;3.83;;
146;SDS011;45999;48.808;9.182;2023-08-06T01:32:34;4.27;;;3.43;;
146;SDS011;45999;48.808;9.182;2023-08-06T01:35:02;4.40;;;4.00;;
146;SDS011;45999;48.808;9.182;2023-08-06T01:37:30;3.90;;;3.50;;
146;SDS011;45999;48.808;9.182;2023-08-06T01:39:57;5.03;;;3.70;;
146;SDS011;45999;48.808;9.182;2023-08-06T01:42:23;4.87;;;3.63;;
146;SDS011;45999;48.808;9.182;2023-08-06T01:44:49;3.87;;;3.17;;
146;SDS011;45999;48.808;9.182;2023-08-06T01:47:16;4.57;;;3.67;;
146;SDS011;45999;48.808;9.182;2023-08-06T01:49:43;4.20;;;3.77;;
146;SDS011;45999;48.808;9.182;2023-08-06T01:52:09;3.60;;;3.07;;
146;SDS011;45999;48.808;9.182;2023-08-06T01:54:35;5.30;;;3.73;;
146;SDS011;45999;48.808;9.182;2023-08-06T01:57:02;4.07;;;3.40;;
146;SDS011;45999;48.808;9.182;2023-08-06T01:59:28;5.23;;;3.30;;
146;SDS011;45999;48.808;9.182;2023-08-06T02:01:54;3.47;;;3.17;;
146;SDS011;45999;48.808;9.182;2023-08-06T02:04:21;3.80;;;3.50;;
146;SDS011;45999;48.808;9.182;2023-08-06T02:06:47;4.27;;;2.97;;
146;SDS011;45999;48.808;9.182;2023-08-06T02:09:14;3.37;;;3.07;;
146;SDS011;45999;48.808;9.182;2023-08-06T02:11:40;4.90;;;3.20;;
146;SDS011;45999;48.808;9.182;2023-08-06T02:14:06;3.73;;;3.00;;
146;SDS011;45999;48.808;9.182;2023-08-06T02:16:33;5.80;;;3.40;;
146;SDS011;45999;48.808;9.182;2023-08-06T02:18:59;4.07;;;3.20;;
146;SDS011;45999;48.808;9.182;2023-08-06T02:21:25;3.37;;;3.10;;
146;SDS011;45999;48.808;9.182;2023-08-06T02:23:52;5.37;;;2.93;;
146;SDS011;45999;48.808;9.182;2023-08-06T02:26:18;3.27;;;2.93;;
146;SDS011;45999;48.808;9.182;2023-08-06T02:28:44;3.33;;;3.03;;
146;SDS011;45999;48.808;9.182;2023-08-06T02:31:11;5.47;;;3.23;;
146;SDS011;45999;48.808;9.182;2023-08-06T02:33:37;4.20;;;3.53;;
146;SDS011;45999;48.808;9.182;2023-08-06T02:36:03;3.40;;;3.10;;
146;SDS011;45999;48.808;9.182;2023-08-06T02:38:30;4.00;;;3.60;;
146;SDS011;45999;48.808;9.182;2023-08-06T02:40:57;3.60;;;3.30;;
146;SDS011;45999;48.808;9.182;2023-08-06T02:43:24;3.50;;;3.20;;
146;SDS011;45999;48.808;9.182;2023-08-06T02:45:50;4.10;;;3.50;;
146;SDS011;45999;48.808;9.182;2023-08-06T02:48:17;3.80;;;3.43;;
146;SDS011;45999;48.808;9.182;2023-08-06T02:50:44;4.67;;;3.10;;
146;SDS011;45999;48.808;9.182;2023-08-06T02:53:10;3.23;;;3.03;;
146;SDS011;45999;48.808;9.182;2023-08-06T02:55:36;3.80;;;3.40;;
146;SDS011;45999;48.808;9.182;2023-08-06T02:58:03;5.00;;;3.40;;
146;SDS011;45999;48.808;9.182;2023-08-06T03:00:29;4.33;;;3.27;;
146;SDS011;45999;48.808;9.182;2023-08-06T03:02:55;4.93;;;3.03;;
146;SDS011;45999;48.808;9.182;2023-08-06T03:05:22;3.30;;;3.00;;
146;SDS011;45999;48.808;9.182;2023-08-06T03:07:48;4.03;;;2.83;;
146;SDS011;45999;48.808;9.182;2023-08-06T03:10:14;4.47;;;3.20;;
146;SDS011;45999;48.808;9.182;2023-08-06T03:12:41;4.80;;;3.30;;
146;SDS011;45999;48.808;9.182;2023-08-06T03:15:07;4.90;;;3.00;;
146;SDS011;45999;48.808;9.182;2023-08-06T03:17:34;3.40;;;2.43;;
146;SDS011;45999;48.808;9.182;2023-08-06T03:20:00;3.90;;;2.93;;
146;SDS011;45999;48.808;9.182;2023-08-06T03:22:27;3.10;;;2.90;;
146;SDS011;45999;48.808;9.182;2023-08-06T03:24:53;2.70;;;2.50;;
146;SDS011;45999;48.808;9.182;2023-08-06T03:27:19;3.10;;;2.90;;
146;SDS011;45999;48.808;9.182;2023-08-06T03:29:48;5.17;;;3.10;;
146;SDS011;45999;48.808;9.182;2023-08-06T03:32:15;5.90;;;2.83;;
146;SDS011;45999;48.808;9.182;2023-08-06T03:34:42;4.27;;;2.97;;
146;SDS011;45999;48.808;9.182;2023-08-06T03:37:08;3.50;;;2.93;;
146;SDS011;45999;48.808;9.182;2023-08-06T03:39:35;5.27;;;3.07;;
146;SDS011;45999;48.808;9.182;2023-08-06T03:42:01;5.47;;;2.70;;
146;SDS011;45999;48.808;9.182;2023-08-06T03:44:27;3.03;;;2.73;;
146;SDS011;45999;48.808;9.182;2023-08-06T03:46:54;3.47;;;3.00;;
146;SDS011;45999;48.808;9.182;2023-08-06T03:49:20;3.30;;;2.90;;
146;SDS011;45999;48.808;9.182;2023-08-06T03:51:46;4.83;;;2.50;;
146;SDS011;45999;48.808;9.182;2023-08-06T03:54:13;4.57;;;2.93;;
146;SDS011;45999;48.808;9.182;2023-08-06T03:56:39;4.83;;;2.70;;
146;SDS011;45999;48.808;9.182;2023-08-06T03:59:06;5.13;;;2.93;;
146;SDS011;45999;48.808;9.182;2023-08-06T04:01:32;5.33;;;2.70;;
146;SDS011;45999;48.808;9.182;2023-08-06T04:03:59;3.13;;;2.83;;
146;SDS011;45999;48.808;9.182;2023-08-06T04:06:25;4.47;;;2.97;;
146;SDS011;45999;48.808;9.182;2023-08-06T04:08:51;6.03;;;3.00;;
146;SDS011;45999;48.808;9.182;2023-08-06T04:11:18;3.30;;;3.00;;
146;SDS011;45999;48.808;9.182;2023-08-06T04:13:44;3.20;;;2.90;;
146;SDS011;45999;48.808;9.182;2023-08-06T04:16:10;4.10;;;3.13;;
146;SDS011;45999;48.808;9.182;2023-08-06T04:18:38;2.90;;;2.60;;
146;SDS011;45999;48.808;9.182;2023-08-06T04:21:04;4.57;;;2.67;;
146;SDS011;45999;48.808;9.182;2023-08-06T04:23:31;3.10;;;2.63;;
146;SDS011;45999;48.808;9.182;2023-08-06T04:25:57;4.10;;;2.60;;
146;SDS011;45999;48.808;9.182;2023-08-06T04:28:24;3.13;;;2.83;;
146;SDS011;45999;48.808;9.182;2023-08-06T04:30:50;5.10;;;3.07;;
146;SDS011;45999;48.808;9.182;2023-08-06T04:33:18;4.27;;;2.93;;
146;SDS011;45999;48.808;9.182;2023-08-06T04:35:45;5.20;;;2.70;;
146;SDS011;45999;48.808;9.182;2023-08-06T04:38:11;2.83;;;2.57;;
146;SDS011;45999;48.808;9.182;2023-08-06T04:40:37;5.03;;;2.80;;
146;SDS011;45999;48.808;9.182;2023-08-06T04:43:04;4.20;;;2.77;;
146;SDS011;45999;48.808;9.182;2023-08-06T04:45:30;3.63;;;3.00;;
146;SDS011;45999;48.808;9.182;2023-08-06T04:47:56;5.60;;;2.40;;
146;SDS011;45999;48.808;9.182;2023-08-06T04:50:23;5.80;;;2.60;;
146;SDS011;45999;48.808;9.182;2023-08-06T04:52:49;3.27;;;2.73;;
146;SDS011;45999;48.808;9.182;2023-08-06T04:55:15;3.90;;;2.20;;
146;SDS011;45999;48.808;9.182;2023-08-06T04:57:42;7.43;;;2.13;;
146;SDS011;45999;48.808;9.182;2023-08-06T05:00:08;3.97;;;2.33;;
146;SDS011;45999;48.808;9.182;2023-08-06T05:02:35;3.07;;;2.37;;
146;SDS011;45999;48.808;9.182;2023-08-06T05:05:03;2.70;;;2.10;;
146;SDS011;45999;48.808;9.182;2023-08-06T05:07:30;3.73;;;2.33;;
146;SDS011;45999;48.808;9.182;2023-08-06T05:09:56;2.30;;;1.97;;
146;SDS011;45999;48.808;9.182;2023-08-06T05:12:23;2.43;;;2.23;;
146;SDS011;45999;48.808;9.182;2023-08-06T05:14:49;3.90;;;2.43;;
146;SDS011;45999;48.808;9.182;2023-08-06T05:17:15;2.87;;;2.47;;
146;SDS011;45999;48.808;9.182;2023-08-06T05:19:42;3.23;;;2.30;;
146;SDS011;45999;48.808;9.182;2023-08-06T05:22:08;5.60;;;2.27;;
146;SDS011;45999;48.808;9.182;2023-08-06T05:24:34;2.80;;;2.17;;
146;SDS011;45999;48.808;9.182;2023-08-06T05:27:01;2.43;;;2.10;;
146;SDS011;45999;48.808;9.182;2023-08-06T05:29:27;3.87;;;2.10;;
146;SDS011;45999;48.808;9.182;2023-08-06T05:31:53;5.07;;;1.80;;
146;SDS011;45999;48.808;9.182;2023-08-06T05:34:20;2.30;;;1.67;;
146;SDS011;45999;48.808;9.182;2023-08-06T05:36:46;1.90;;;1.50;;
146;SDS011;45999;48.808;9.182;2023-08-06T05:39:13;1.80;;;1.37;;
146;SDS011;45999;48.808;9.182;2023-08-06T05:41:39;3.10;;;1.47;;
146;SDS011;45999;48.808;9.182;2023-08-06T05:44:05;4.00;;;1.50;;
146;SDS011;45999;48.808;9.182;2023-08-06T05:46:31;3.53;;;1.60;;
146;SDS011;45999;48.808;9.182;2023-08-06T05:48:58;3.07;;;1.80;;
146;SDS011;45999;48.808;9.182;2023-08-06T05:51:25;6.23;;;1.60;;
146;SDS011;45999;48.808;9.182;2023-08-06T05:53:52;1.67;;;1.50;;
146;SDS011;45999;48.808;9.182;2023-08-06T05:56:19;5.67;;;1.70;;
146;SDS011;45999;48.808;9.182;2023-08-06T05:58:45;2.33;;;1.40;;
146;SDS011;45999;48.808;9.182;2023-08-06T06:01:12;2.10;;;1.40;;
146;SDS011;45999;48.808;9.182;2023-08-06T06:03:39;2.23;;;1.50;;
146;SDS011;45999;48.808;9.182;2023-08-06T06:06:05;2.60;;;1.13;;
146;SDS011;45999;48.808;9.182;2023-08-06T06:08:31;2.47;;;1.27;;
146;SDS011;45999;48.808;9.182;2023-08-06T06:10:59;2.20;;;1.20;;
146;SDS011;45999;48.808;9.182;2023-08-06T06:13:25;1.47;;;1.00;;
146;SDS011;45999;48.808;9.182;2023-08-06T06:15:54;1.10;;;1.00;;
146;SDS011;45999;48.808;9.182;2023-08-06T06:18:21;1.83;;;1.03;;
146;SDS011;45999;48.808;9.182;2023-08-06T06:20:47;2.40;;;0.70;;
146;SDS011;45999;48.808;9.182;2023-08-06T06:23:14;0.87;;;0.70;;
146;SDS011;45999;48.808;9.182;2023-08-06T06:25:44;2.20;;;0.90;;
146;SDS011;45999;48.808;9.182;2023-08-06T06:28:14;2.40;;;0.80;;
146;SDS011;45999;48.808;9.182;2023-08-06T06:30:41;2.07;;;0.73;;
146;SDS011;45999;48.808;9.182;2023-08-06T06:33:07;1.10;;;0.70;;
146;SDS011;45999;48.808;9.182;2023-08-06T06:35:34;2.33;;;1.00;;
146;SDS011;45999;48.808;9.182;2023-08-06T06:38:00;3.83;;;1.20;;
146;SDS011;45999;48.808;9.182;2023-08-06T06:40:27;1.13;;;0.80;;
146;SDS011;45999;48.808;9.182;2023-08-06T06:42:54;1.50;;;0.93;;
146;SDS011;45999;48.808;9.182;2023-08-06T06:45:20;1.50;;;0.93;;
146;SDS011;45999;48.808;9.182;2023-08-06T06:47:47;1.10;;;0.70;;
146;SDS011;45999;48.808;9.182;2023-08-06T06:50:13;1.30;;;0.70;;
146;SDS011;45999;48.808;9.182;2023-08-06T06:52:39;2.20;;;1.00;;
146;SDS011;45999;48.808;9.182;2023-08-06T06:55:06;2.27;;;0.83;;
146;SDS011;45999;48.808;9.182;2023-08-06T06:57:32;2.77;;;0.80;;
146;SDS011;45999;48.808;9.182;2023-08-06T06:59:59;1.67;;;0.90;;
146;SDS011;45999;48.808;9.182;2023-08-06T07:02:25;1.57;;;0.90;;
146;SDS011;45999;48.808;9.182;2023-08-06T07:04:51;1.67;;;0.70;;
146;SDS011;45999;48.808;9.182;2023-08-06T07:07:18;0.83;;;0.60;;
146;SDS011;45999;48.808;9.182;2023-08-06T07:09:44;1.20;;;0.80;;
146;SDS011;45999;48.808;9.182;2023-08-06T07:12:10;0.73;;;0.70;;
146;SDS011;45999;48.808;9.182;2023-08-06T07:14:37;1.23;;;0.80;;
146;SDS011;45999;48.808;9.182;2023-08-06T07:17:03;0.60;;;0.53;;
146;SDS011;45999;48.808;9.182;2023-08-06T07:19:30;1.10;;;0.70;;
146;SDS011;45999;48.808;9.182;2023-08-06T07:21:56;0.83;;;0.60;;
146;SDS011;45999;48.808;9.182;2023-08-06T07:24:23;1.67;;;0.67;;
146;SDS011;45999;48.808;9.182;2023-08-06T07:26:49;0.93;;;0.60;;
146;SDS011;45999;48.808;9.182;2023-08-06T07:29:17;1.90;;;0.80;;
146;SDS011;45999;48.808;9.182;2023-08-06T07:31:46;0.70;;;0.70;;
146;SDS011;45999;48.808;9.182;2023-08-06T07:34:14;0.60;;;0.60;;
146;SDS011;45999;48.808;9.182;2023-08-06T07:36:43;2.00;;;0.70;;
146;SDS011;45999;48.808;9.182;2023-08-06T07:39:10;1.97;;;0.70;;
146;SDS011;45999;48.808;9.182;2023-08-06T07:41:37;1.03;;;0.60;;
146;SDS011;45999;48.808;9.182;2023-08-06T07:44:03;1.13;;;0.70;;
146;SDS011;45999;48.808;9.182;2023-08-06T07:46:30;1.23;;;0.60;;
146;SDS011;45999;48.808;9.182;2023-08-06T07:48:56;0.60;;;0.57;;
146;SDS011;45999;48.808;9.182;2023-08-06T07:51:23;0.83;;;0.60;;
146;SDS011;45999;48.808;9.182;2023-08-06T07:53:50;1.70;;;0.60;;
146;SDS011;45999;48.808;9.182;2023-08-06T07:56:16;0.70;;;0.53;;
146;SDS011;45999;48.808;9.182;2023-08-06T07:58:42;0.40;;;0.40;;
146;SDS011;45999;48.808;9.182;2023-08-06T08:01:09;1.70;;;0.50;;
146;SDS011;45999;48.808;9.182;2023-08-06T08:03:35;0.87;;;0.50;;
146;SDS011;45999;48.808;9.182;2023-08-06T08:06:02;0.83;;;0.40;;
146;SDS011;45999;48.808;9.182;2023-08-06T08:08:28;2.93;;;0.40;;
146;SDS011;45999;48.808;9.182;2023-08-06T08:10:54;0.40;;;0.40;;
146;SDS011;45999;48.808;9.182;2023-08-06T08:13:21;0.47;;;0.40;;
146;SDS011;45999;48.808;9.182;2023-08-06T08:15:48;2.70;;;0.50;;
146;SDS011;45999;48.808;9.182;2023-08-06T08:18:14;0.50;;;0.50;;
146;SDS011;45999;48.808;9.182;2023-08-06T08:20:40;1.13;;;0.43;;
146;SDS011;45999;48.808;9.182;2023-08-06T08:23:07;0.93;;;0.40;;
146;SDS011;45999;48.808;9.182;2023-08-06T08:25:33;0.53;;;0.53;;
146;SDS011;45999;48.808;9.182;2023-08-06T08:28:00;0.33;;;0.30;;
146;SDS011;45999;48.808;9.182;2023-08-06T08:30:26;0.30;;;0.30;;
146;SDS011;45999;48.808;9.182;2023-08-06T08:32:52;0.57;;;0.40;;
146;SDS011;45999;48.808;9.182;2023-08-06T08:35:19;0.30;;;0.30;;
146;SDS011;45999;48.808;9.182;2023-08-06T08:37:45;0.30;;;0.30;;
146;SDS011;45999;48.808;9.182;2023-08-06T08:40:13;0.30;;;0.30;;
146;SDS011;45999;48.808;9.182;2023-08-06T08:42:40;0.20;;;0.20;;
146;SDS011;45999;48.808;9.182;2023-08-06T08:45:09;1.13;;;0.30;;
146;SDS011;45999;48.808;9.182;2023-08-06T08:47:38;0.37;;;0.37;;
146;SDS011;45999;48.808;9.182;2023-08-06T08:50:09;0.20;;;0.20;;
146;SDS011;45999;48.808;9.182;2023-08-06T08:52:36;0.47;;;0.40;;
146;SDS011;45999;48.808;9.182;2023-08-06T08:55:05;0.40;;;0.30;;
146;SDS011;45999;48.808;9.182;2023-08-06T08:57:33;0.93;;;0.30;;
146;SDS011;45999;48.808;9.182;2023-08-06T08:59:59;0.30;;;0.30;;
146;SDS011;45999;48.808;9.182;2023-08-06T09:02:28;0.73;;;0.40;;
146;SDS011;45999;48.808;9.182;2023-08-06T09:04:57;0.20;;;0.20;;
146;SDS011;45999;48.808;9.182;2023-08-06T09:07:27;0.30;;;0.30;;
146;SDS011;45999;48.808;9.182;2023-08-06T09:10:02;0.40;;;0.20;;
146;SDS011;45999;48.808;9.182;2023-08-06T09:12:29;0.37;;;0.30;;
146;SDS011;45999;48.808;9.182;2023-08-06T09:14:56;0.50;;;0.40;;
146;SDS011;45999;48.808;9.182;2023-08-06T09:17:23;0.20;;;0.20;;
146;SDS011;45999;48.808;9.182;2023-08-06T09:19:49;0.20;;;0.20;;
146;SDS011;45999;48.808;9.182;2023-08-06T09:22:15;0.97;;;0.37;;
146;SDS011;45999;48.808;9.182;2023-08-06T09:24:42;0.30;;;0.30;;
146;SDS011;45999;48.808;9.182;2023-08-06T09:27:15;0.20;;;0.20;;
146;SDS011;45999;48.808;9.182;2023-08-06T09:29:44;0.20;;;0.20;;
146;SDS011;45999;48.808;9.182;2023-08-06T09:32:13;0.23;;;0.23;;
146;SDS011;45999;48.808;9.182;2023-08-06T09:37:11;0.20;;;0.20;;
146;SDS011;45999;48.808;9.182;2023-08-06T09:39:38;0.57;;;0.40;;
146;SDS011;45999;48.808;9.182;2023-08-06T09:42:05;0.40;;;0.40;;
146;SDS011;45999;48.808;9.182;2023-08-06T09:44:32;0.40;;;0.40;;
146;SDS011;45999;48.808;9.182;2023-08-06T09:47:00;0.27;;;0.27;;
146;SDS011;45999;48.808;9.182;2023-08-06T09:49:40;0.30;;;0.30;;
146;SDS011;45999;48.808;9.182;2023-08-06T09:52:10;0.30;;;0.30;;
146;SDS011;45999;48.808;9.182;2023-08-06T09:54:37;0.30;;;0.30;;
146;SDS011;45999;48.808;9.182;2023-08-06T09:57:04;0.20;;;0.20;;
146;SDS011;45999;48.808;9.182;2023-08-06T09:59:32;0.30;;;0.30;;
146;SDS011;45999;48.808;9.182;2023-08-06T10:01:59;0.87;;;0.30;;
146;SDS011;45999;48.808;9.182;2023-08-06T10:04:25;0.33;;;0.33;;
146;SDS011;45999;48.808;9.182;2023-08-06T10:06:52;1.07;;;0.20;;
146;SDS011;45999;48.808;9.182;2023-08-06T10:09:19;0.60;;;0.27;;
146;SDS011;45999;48.808;9.182;2023-08-06T10:11:49;0.30;;;0.30;;
146;SDS011;45999;48.808;9.182;2023-08-06T10:14:20;0.30;;;0.30;;
146;SDS011;45999;48.808;9.182;2023-08-06T10:16:50;0.30;;;0.30;;
146;SDS011;45999;48.808;9.182;2023-08-06T10:19:17;0.30;;;0.30;;
146;SDS011;45999;48.808;9.182;2023-08-06T10:24:56;0.40;;;0.40;;
146;SDS011;45999;48.808;9.182;2023-08-06T10:27:30;0.40;;;0.40;;
146;SDS011;45999;48.808;9.182;2023-08-06T10:32:54;0.83;;;0.30;;
146;SDS011;45999;48.808;9.182;2023-08-06T10:35:28;0.30;;;0.30;;
146;SDS011;45999;48.808;9.182;2023-08-06T10:38:09;0.30;;;0.30;;
146;SDS011;45999;48.808;9.182;2023-08-06T10:40:42;0.30;;;0.30;;
146;SDS011;45999;48.808;9.182;2023-08-06T10:43:26;0.23;;;0.23;;
146;SDS011;45999;48.808;9.182;2023-08-06T10:45:54;0.23;;;0.23;;
146;SDS011;45999;48.808;9.182;2023-08-06T10:48:30;0.37;;;0.37;;
146;SDS011;45999;48.808;9.182;2023-08-06T10:51:00;0.30;;;0.30;;
146;SDS011;45999;48.808;9.182;2023-08-06T10:53:27;0.20;;;0.20;;
146;SDS011;45999;48.808;9.182;2023-08-06T10:55:54;0.50;;;0.30;;
146;SDS011;45999;48.808;9.182;2023-08-06T10:58:20;0.33;;;0.33;;
146;SDS011;45999;48.808;9.182;2023-08-06T11:00:47;0.30;;;0.30;;
146;SDS011;45999;48.808;9.182;2023-08-06T11:03:14;0.40;;;0.40;;
146;SDS011;45999;48.808;9.182;2023-08-06T11:05:41;0.47;;;0.30;;
146;SDS011;45999;48.808;9.182;2023-08-06T11:08:27;0.30;;;0.30;;
146;SDS011;45999;48.808;9.182;2023-08-06T11:10:55;0.50;;;0.50;;
146;SDS011;45999;48.808;9.182;2023-08-06T11:13:34;0.50;;;0.50;;
146;SDS011;45999;48.808;9.182;2023-08-06T11:16:00;0.60;;;0.50;;
146;SDS011;45999;48.808;9.182;2023-08-06T11:18:27;0.53;;;0.53;;
146;SDS011;45999;48.808;9.182;2023-08-06T11:20:54;2.63;;;0.50;;
146;SDS011;45999;48.808;9.182;2023-08-06T11:23:21;0.50;;;0.47;;
146;SDS011;45999;48.808;9.182;2023-08-06T11:25:47;0.45;;;0.45;;
146;SDS011;45999;48.808;9.182;2023-08-06T11:28:13;0.50;;;0.50;;
146;SDS011;45999;48.808;9.182;2023-08-06T11:30:40;0.47;;;0.47;;
146;SDS011;45999;48.808;9.182;2023-08-06T11:33:06;0.50;;;0.50;;
146;SDS011;45999;48.808;9.182;2023-08-06T11:35:35;0.50;;;0.50;;
146;SDS011;45999;48.808;9.182;2023-08-06T11:38:02;0.77;;;0.70;;
146;SDS011;45999;48.808;9.182;2023-08-06T11:40:28;0.60;;;0.60;;
146;SDS011;45999;48.808;9.182;2023-08-06T11:42:55;1.67;;;0.90;;
146;SDS011;45999;48.808;9.182;2023-08-06T11:45:22;0.70;;;0.70;;
146;SDS011;45999;48.808;9.182;2023-08-06T11:47:50;3.07;;;0.90;;
146;SDS011;45999;48.808;9.182;2023-08-06T11:50:24;0.90;;;0.87;;
146;SDS011;45999;48.808;9.182;2023-08-06T11:52:58;1.13;;;0.87;;
146;SDS011;45999;48.808;9.182;2023-08-06T11:55:26;1.07;;;1.03;;
146;SDS011;45999;48.808;9.182;2023-08-06T11:57:54;1.33;;;1.00;;
146;SDS011;45999;48.808;9.182;2023-08-06T12:00:22;1.13;;;0.90;;
146;SDS011;45999;48.808;9.182;2023-08-06T12:02:51;0.93;;;0.90;;
146;SDS011;45999;48.808;9.182;2023-08-06T12:05:20;4.73;;;1.10;;
146;SDS011;45999;48.808;9.182;2023-08-06T12:07:52;2.07;;;1.10;;
146;SDS011;45999;48.808;9.182;2023-08-06T12:10:22;1.33;;;1.23;;
146;SDS011;45999;48.808;9.182;2023-08-06T12:12:50;1.73;;;1.10;;
146;SDS011;45999;48.808;9.182;2023-08-06T12:15:16;1.33;;;1.23;;
146;SDS011;45999;48.808;9.182;2023-08-06T12:17:43;1.30;;;1.20;;
146;SDS011;45999;48.808;9.182;2023-08-06T12:20:10;1.50;;;1.37;;
146;SDS011;45999;48.808;9.182;2023-08-06T12:22:36;1.53;;;1.20;;
146;SDS011;45999;48.808;9.182;2023-08-06T12:25:08;3.50;;;1.00;;
146;SDS011;45999;48.808;9.182;2023-08-06T12:27:40;2.00;;;1.50;;
146;SDS011;45999;48.808;9.182;2023-08-06T12:30:08;1.40;;;1.30;;
146;SDS011;45999;48.808;9.182;2023-08-06T12:32:37;2.07;;;1.47;;
146;SDS011;45999;48.808;9.182;2023-08-06T12:35:04;2.33;;;1.30;;
146;SDS011;45999;48.808;9.182;2023-08-06T12:37:32;2.23;;;1.27;;
146;SDS011;45999;48.808;9.182;2023-08-06T12:39:58;2.50;;;1.50;;
146;SDS011;45999;48.808;9.182;2023-08-06T12:42:25;1.80;;;1.20;;
146;SDS011;45999;48.808;9.182;2023-08-06T12:44:51;1.43;;;1.17;;
146;SDS011;45999;48.808;9.182;2023-08-06T12:47:18;2.20;;;1.10;;
146;SDS011;45999;48.808;9.182;2023-08-06T12:49:45;2.60;;;1.07;;
146;SDS011;45999;48.808;9.182;2023-08-06T12:52:11;1.50;;;0.93;;
146;SDS011;45999;48.808;9.182;2023-08-06T12:54:40;0.77;;;0.77;;
146;SDS011;45999;48.808;9.182;2023-08-06T12:57:06;1.80;;;1.10;;
146;SDS011;45999;48.808;9.182;2023-08-06T12:59:33;1.87;;;0.80;;
146;SDS011;45999;48.808;9.182;2023-08-06T13:02:01;0.80;;;0.80;;
146;SDS011;45999;48.808;9.182;2023-08-06T13:04:28;1.20;;;0.80;;
146;SDS011;45999;48.808;9.182;2023-08-06T13:06:54;2.07;;;0.80;;
146;SDS011;45999;48.808;9.182;2023-08-06T13:09:21;1.20;;;0.90;;
146;SDS011;45999;48.808;9.182;2023-08-06T13:11:47;0.90;;;0.90;;
146;SDS011;45999;48.808;9.182;2023-08-06T13:14:15;0.73;;;0.73;;
146;SDS011;45999;48.808;9.182;2023-08-06T13:16:42;0.80;;;0.80;;
146;SDS011;45999;48.808;9.182;2023-08-06T13:19:09;1.80;;;0.73;;
146;SDS011;45999;48.808;9.182;2023-08-06T13:24:07;0.87;;;0.87;;
146;SDS011;45999;48.808;9.182;2023-08-06T13:26:34;1.63;;;0.80;;
146;SDS011;45999;48.808;9.182;2023-08-06T13:29:01;1.00;;;0.83;;
146;SDS011;45999;48.808;9.182;2023-08-06T13:31:27;0.70;;;0.70;;
146;SDS011;45999;48.808;9.182;2023-08-06T13:33:54;0.90;;;0.80;;
146;SDS011;45999;48.808;9.182;2023-08-06T13:36:23;0.70;;;0.70;;
146;SDS011;45999;48.808;9.182;2023-08-06T13:38:49;1.10;;;0.67;;
146;SDS011;45999;48.808;9.182;2023-08-06T13:41:16;0.73;;;0.70;;
146;SDS011;45999;48.808;9.182;2023-08-06T13:43:43;0.60;;;0.60;;
146;SDS011;45999;48.808;9.182;2023-08-06T13:46:10;1.80;;;0.60;;
146;SDS011;45999;48.808;9.182;2023-08-06T13:48:40;0.83;;;0.60;;
146;SDS011;45999;48.808;9.182;2023-08-06T13:51:06;2.27;;;0.70;;
146;SDS011;45999;48.808;9.182;2023-08-06T13:53:33;1.73;;;0.60;;
146;SDS011;45999;48.808;9.182;2023-08-06T13:55:59;0.60;;;0.60;;
146;SDS011;45999;48.808;9.182;2023-08-06T13:58:26;0.60;;;0.60;;
146;SDS011;45999;48.808;9.182;2023-08-06T14:00:52;0.60;;;0.60;;
146;SDS011;45999;48.808;9.182;2023-08-06T14:03:20;1.50;;;0.90;;
146;SDS011;45999;48.808;9.182;2023-08-06T14:05:46;0.70;;;0.70;;
146;SDS011;45999;48.808;9.182;2023-08-06T14:08:13;1.03;;;0.57;;
146;SDS011;45999;48.808;9.182;2023-08-06T14:10:39;1.37;;;0.60;;
146;SDS011;45999;48.808;9.182;2023-08-06T14:13:06;0.83;;;0.60;;
146;SDS011;45999;48.808;9.182;2023-08-06T14:15:32;0.73;;;0.70;;
146;SDS011;45999;48.808;9.182;2023-08-06T14:17:59;0.70;;;0.70;;
146;SDS011;45999;48.808;9.182;2023-08-06T14:20:25;0.87;;;0.60;;
146;SDS011;45999;48.808;9.182;2023-08-06T14:22:51;1.33;;;0.77;;
146;SDS011;45999;48.808;9.182;2023-08-06T14:25:18;1.00;;;0.70;;
146;SDS011;45999;48.808;9.182;2023-08-06T14:27:44;2.97;;;0.73;;
146;SDS011;45999;48.808;9.182;2023-08-06T14:30:11;0.83;;;0.70;;
146;SDS011;45999;48.808;9.182;2023-08-06T14:32:38;0.80;;;0.80;;
146;SDS011;45999;48.808;9.182;2023-08-06T14:35:05;1.10;;;0.80;;
146;SDS011;45999;48.808;9.182;2023-08-06T14:37:32;2.03;;;0.70;;
146;SDS011;45999;48.808;9.182;2023-08-06T14:40:01;1.10;;;0.70;;
146;SDS011;45999;48.808;9.182;2023-08-06T14:42:27;1.00;;;0.70;;
146;SDS011;45999;48.808;9.182;2023-08-06T14:44:54;2.10;;;0.63;;
146;SDS011;45999;48.808;9.182;2023-08-06T14:47:21;1.20;;;0.77;;
146;SDS011;45999;48.808;9.182;2023-08-06T14:49:47;0.77;;;0.60;;
146;SDS011;45999;48.808;9.182;2023-08-06T14:52:14;0.77;;;0.77;;
146;SDS011;45999;48.808;9.182;2023-08-06T14:54:41;0.80;;;0.70;;
146;SDS011;45999;48.808;9.182;2023-08-06T14:57:09;1.47;;;0.77;;
146;SDS011;45999;48.808;9.182;2023-08-06T14:59:35;0.97;;;0.70;;
146;SDS011;45999;48.808;9.182;2023-08-06T15:02:02;0.73;;;0.73;;
146;SDS011;45999;48.808;9.182;2023-08-06T15:04:29;0.80;;;0.60;;
146;SDS011;45999;48.808;9.182;2023-08-06T15:06:56;0.63;;;0.60;;
146;SDS011;45999;48.808;9.182;2023-08-06T15:09:22;0.80;;;0.80;;
146;SDS011;45999;48.808;9.182;2023-08-06T15:11:49;0.57;;;0.57;;
146;SDS011;45999;48.808;9.182;2023-08-06T15:14:15;0.80;;;0.80;;
146;SDS011;45999;48.808;9.182;2023-08-06T15:16:42;0.80;;;0.80;;
146;SDS011;45999;48.808;9.182;2023-08-06T15:19:09;0.50;;;0.50;;
146;SDS011;45999;48.808;9.182;2023-08-06T15:21:35;1.90;;;0.90;;
146;SDS011;45999;48.808;9.182;2023-08-06T15:24:01;0.70;;;0.70;;
146;SDS011;45999;48.808;9.182;2023-08-06T15:26:28;0.80;;;0.70;;
146;SDS011;45999;48.808;9.182;2023-08-06T15:28:54;1.20;;;0.80;;
146;SDS011;45999;48.808;9.182;2023-08-06T15:31:22;2.93;;;0.80;;
146;SDS011;45999;48.808;9.182;2023-08-06T15:33:48;1.33;;;0.87;;